Time;durP1;ratioP1;P1;durP2;ratioP2;P2;SDS_P1;SDS_P2;PMS_P1;PMS_P2;Temp;Humidity;BMP_temperature;BMP_pressure;BME280_temperature;BME280_humidity;BME280_pressure;Samples;Min_cycle;Max_cycle;Signal;HPM_P1;HPM_P2
2023/02/06 00:01:37;;;;;;;51.72;12.75;;;;;;;3.34;100.00;101598.97;5037874;28;20029;-58
2023/02/06 00:04:03;;;;;;;47.95;12.65;;;;;;;3.28;100.00;101603.00;5039815;28;20024;-59
2023/02/06 00:06:28;;;;;;;59.50;12.45;;;;;;;3.21;100.00;101610.66;5043855;28;20040;-58
2023/02/06 00:08:53;;;;;;;48.50;12.13;;;;;;;3.23;100.00;101608.69;5038521;28;20559;-58
2023/02/06 00:11:20;;;;;;;44.42;11.45;;;;;;;3.22;100.00;101607.03;5050948;28;20032;-58
2023/02/06 00:13:46;;;;;;;54.10;13.25;;;;;;;3.26;100.00;101612.06;5037505;28;20029;-58
2023/02/06 00:16:17;;;;;;;43.95;12.23;;;;;;;3.22;100.00;101612.34;5043148;28;20484;-59
2023/02/06 00:18:42;;;;;;;50.03;11.73;;;;;;;3.27;100.00;101611.06;5042707;28;20032;-59
2023/02/06 00:21:08;;;;;;;52.67;12.32;;;;;;;3.31;100.00;101605.38;5049896;28;20033;-59
2023/02/06 00:23:33;;;;;;;60.40;14.18;;;;;;;3.22;100.00;101612.34;5039804;28;20099;-58
2023/02/06 00:25:59;;;;;;;47.72;14.50;;;;;;;3.24;100.00;101607.75;5036569;28;20021;-58
2023/02/06 00:28:24;;;;;;;43.85;12.05;;;;;;;3.25;100.00;101608.59;5038832;28;20039;-59
2023/02/06 00:30:49;;;;;;;51.70;12.02;;;;;;;3.23;100.00;101611.34;5042411;28;20037;-58
2023/02/06 00:33:15;;;;;;;48.53;12.55;;;;;;;3.13;100.00;101613.16;5038477;28;20029;-59
2023/02/06 00:35:40;;;;;;;47.00;11.57;;;;;;;3.15;100.00;101616.50;5040298;28;20029;-58
2023/02/06 00:38:08;;;;;;;53.95;11.93;;;;;;;3.16;100.00;101610.22;5038957;28;20044;-60
2023/02/06 00:40:33;;;;;;;47.20;12.30;;;;;;;3.28;100.00;101610.13;5049318;28;20085;-60
2023/02/06 00:42:59;;;;;;;45.50;11.57;;;;;;;3.13;100.00;101615.81;5039498;28;20044;-58
2023/02/06 00:45:24;;;;;;;48.00;12.65;;;;;;;3.04;100.00;101624.53;5044730;28;20025;-58
2023/02/06 00:47:49;;;;;;;48.38;12.00;;;;;;;3.17;100.00;101624.31;5040863;28;20029;-59
2023/02/06 00:50:15;;;;;;;58.35;11.43;;;;;;;3.18;100.00;101615.41;5040430;28;20626;-58
2023/02/06 00:52:41;;;;;;;33.03;10.43;;;;;;;3.28;100.00;101623.38;5037739;28;20104;-58
2023/02/06 00:55:06;;;;;;;34.40;10.75;;;;;;;3.10;100.00;101617.91;5045222;28;20488;-59
2023/02/06 00:57:32;;;;;;;35.47;11.65;;;;;;;3.09;100.00;101610.91;5041420;28;20070;-61
2023/02/06 00:59:57;;;;;;;45.35;10.38;;;;;;;3.13;100.00;101618.44;5038422;28;20160;-60
2023/02/06 01:02:23;;;;;;;43.95;11.48;;;;;;;3.15;100.00;101610.38;5038679;28;20379;-58
2023/02/06 01:04:48;;;;;;;65.05;11.43;;;;;;;3.10;100.00;101624.03;5045388;28;20029;-60
2023/02/06 01:07:14;;;;;;;41.38;10.40;;;;;;;2.99;100.00;101629.41;5038696;28;20022;-58
2023/02/06 01:09:39;;;;;;;50.72;10.52;;;;;;;3.04;100.00;101627.19;5035367;28;20045;-59
2023/02/06 01:12:05;;;;;;;52.72;12.30;;;;;;;2.95;100.00;101630.69;5037926;28;20463;-58
2023/02/06 01:14:30;;;;;;;40.00;10.35;;;;;;;3.00;100.00;101623.16;5044050;28;20040;-59
2023/02/06 01:16:55;;;;;;;34.88;10.77;;;;;;;3.07;100.00;101624.31;5046163;28;20021;-63
2023/02/06 01:19:21;;;;;;;38.97;10.20;;;;;;;3.07;100.00;101624.31;5046438;28;20036;-58
2023/02/06 01:21:46;;;;;;;37.97;10.02;;;;;;;3.04;100.00;101629.84;5041112;28;20364;-58
2023/02/06 01:24:12;;;;;;;43.72;10.27;;;;;;;3.05;100.00;101631.53;5053828;28;20415;-58
2023/02/06 01:26:37;;;;;;;47.17;10.85;;;;;;;3.08;100.00;101633.91;5046217;28;20560;-60
2023/02/06 01:29:02;;;;;;;39.55;9.90;;;;;;;3.03;100.00;101641.44;5043319;28;20072;-58
2023/02/06 01:31:28;;;;;;;38.10;10.35;;;;;;;3.06;100.00;101641.16;5044198;28;20482;-60
2023/02/06 01:33:55;;;;;;;37.88;9.77;;;;;;;3.09;100.00;101632.94;5052792;28;20053;-59
2023/02/06 01:36:20;;;;;;;37.10;9.20;;;;;;;3.01;100.00;101630.13;5045201;28;20024;-59
2023/02/06 01:38:46;;;;;;;32.60;9.27;;;;;;;3.04;100.00;101635.16;5046835;28;20048;-60
2023/02/06 01:41:11;;;;;;;39.97;8.93;;;;;;;2.98;100.00;101641.81;5049162;28;20392;-58
2023/02/06 01:43:39;;;;;;;38.55;9.40;;;;;;;2.94;100.00;101623.69;5043397;28;20025;-60
2023/02/06 01:46:05;;;;;;;37.47;8.85;;;;;;;3.02;100.00;101629.13;5051658;28;20090;-59
2023/02/06 01:48:36;;;;;;;21.33;8.15;;;;;;;2.94;100.00;101624.50;5039010;28;20507;-60
2023/02/06 01:51:02;;;;;;;19.58;7.22;;;;;;;2.87;100.00;101618.09;5051670;28;20476;-60
2023/02/06 01:53:27;;;;;;;18.30;7.38;;;;;;;2.84;98.58;101613.03;5027214;28;20120;-59
2023/02/06 01:55:53;;;;;;;30.65;8.23;;;;;;;2.93;97.87;101608.78;5046544;28;20506;-61
2023/02/06 01:58:24;;;;;;;16.90;6.32;;;;;;;2.88;95.42;101611.81;5042041;28;20043;-58
2023/02/06 02:00:50;;;;;;;14.52;6.20;;;;;;;2.88;94.14;101609.16;5025325;28;20029;-58
2023/02/06 02:03:15;;;;;;;17.15;7.05;;;;;;;2.80;94.11;101620.44;5042557;28;20087;-58
2023/02/06 02:05:41;;;;;;;15.75;6.20;;;;;;;2.80;93.72;101612.50;5040655;28;20033;-59
2023/02/06 02:08:13;;;;;;;17.20;7.25;;;;;;;2.79;93.38;101617.91;5039470;28;20037;-59
2023/02/06 02:10:39;;;;;;;12.50;6.00;;;;;;;2.80;93.17;101615.13;5053483;28;20391;-59
2023/02/06 02:13:04;;;;;;;20.60;7.68;;;;;;;2.77;93.47;101620.72;5068526;28;20026;-59
2023/02/06 02:16:01;;;;;;;16.25;7.25;;;;;;;2.76;92.79;101631.41;5034297;28;20417;-58
2023/02/06 02:18:32;;;;;;;24.88;7.25;;;;;;;2.76;92.92;101618.19;5033458;28;20067;-58
2023/02/06 02:21:16;;;;;;;14.60;6.53;;;;;;;2.70;93.15;101624.84;5041340;28;20100;-58
2023/02/06 02:23:47;;;;;;;22.30;6.90;;;;;;;2.63;92.93;101615.75;5034313;28;20073;-59
2023/02/06 02:26:23;;;;;;;20.25;7.47;;;;;;;2.67;93.84;101617.19;5035979;28;20390;-58
2023/02/06 02:28:59;;;;;;;20.40;6.63;;;;;;;2.67;93.08;101622.47;5034447;28;20095;-58
2023/02/06 02:31:43;;;;;;;14.27;6.00;;;;;;;2.73;92.43;101606.03;5050306;28;20073;-58
2023/02/06 02:34:36;;;;;;;23.98;7.35;;;;;;;2.65;92.55;101611.19;5040808;28;20112;-58
2023/02/06 02:37:15;;;;;;;22.38;7.72;;;;;;;2.69;93.31;101615.22;5041637;28;20468;-58
2023/02/06 02:39:56;;;;;;;19.92;7.18;;;;;;;2.64;93.46;101606.81;5048708;28;20028;-58
2023/02/06 02:42:43;;;;;;;20.00;7.80;;;;;;;2.73;93.56;101614.00;5043693;28;20663;-58
2023/02/06 02:45:20;;;;;;;23.95;7.00;;;;;;;2.65;93.53;101618.28;5052773;28;20087;-59
2023/02/06 02:48:02;;;;;;;21.05;7.90;;;;;;;2.61;94.10;101615.03;5030310;28;20034;-59
2023/02/06 02:50:28;;;;;;;22.48;8.70;;;;;;;2.70;94.01;101616.06;5045982;28;20444;-58
2023/02/06 02:52:53;;;;;;;19.17;9.35;;;;;;;2.63;94.91;101610.47;5042754;28;20040;-59
2023/02/06 02:55:21;;;;;;;23.88;8.25;;;;;;;2.59;95.37;101614.34;5045441;28;20035;-59
2023/02/06 02:57:48;;;;;;;20.42;8.75;;;;;;;2.58;95.71;101610.03;5035856;28;20469;-59
2023/02/06 03:00:15;;;;;;;18.88;7.72;;;;;;;2.63;96.38;101618.41;5040849;28;20029;-58
2023/02/06 03:02:41;;;;;;;28.10;8.25;;;;;;;2.63;98.71;101605.16;5044771;28;20426;-59
2023/02/06 03:05:08;;;;;;;22.45;9.43;;;;;;;2.58;97.97;101599.44;5019442;28;20033;-59
2023/02/06 03:07:52;;;;;;;21.05;7.25;;;;;;;2.67;98.77;101605.72;5006480;28;20035;-59
2023/02/06 03:10:42;;;;;;;14.57;6.57;;;;;;;2.65;94.38;101602.41;4997776;28;1142116;-59
2023/02/06 03:13:18;;;;;;;16.15;6.57;;;;;;;2.63;92.11;101596.38;5045045;28;20079;-58
2023/02/06 03:16:06;;;;;;;19.08;6.80;;;;;;;2.66;89.75;101601.41;5029829;28;20039;-58
2023/02/06 03:18:49;;;;;;;19.65;6.60;;;;;;;2.69;90.35;101604.63;5033901;28;20040;-58
2023/02/06 03:21:17;;;;;;;21.45;7.38;;;;;;;2.61;92.46;101600.97;5039260;28;20029;-59
2023/02/06 03:23:43;;;;;;;19.05;6.32;;;;;;;2.51;95.79;101606.22;5038440;28;20504;-58
2023/02/06 03:26:09;;;;;;;17.55;7.00;;;;;;;2.53;96.18;101613.06;5027700;28;20025;-59
2023/02/06 03:28:37;;;;;;;21.38;7.55;;;;;;;2.49;96.58;101600.22;5049089;28;20017;-59
2023/02/06 03:31:04;;;;;;;20.88;6.57;;;;;;;2.37;97.09;101600.31;5042403;28;20376;-59
2023/02/06 03:33:36;;;;;;;20.45;6.40;;;;;;;2.42;97.54;101607.00;5037078;28;20094;-58
2023/02/06 03:36:04;;;;;;;21.08;6.38;;;;;;;2.31;98.71;101605.28;5050140;28;20048;-59
2023/02/06 03:38:29;;;;;;;23.58;6.55;;;;;;;2.33;98.63;101604.19;5043989;28;20409;-58
2023/02/06 03:40:54;;;;;;;18.35;6.45;;;;;;;2.22;100.00;101606.91;5037205;28;20507;-59
2023/02/06 03:43:20;;;;;;;20.20;6.40;;;;;;;2.19;100.00;101601.03;5076229;28;20555;-59
2023/02/06 03:45:48;;;;;;;13.82;6.47;;;;;;;2.12;100.00;101604.19;5026084;28;20041;-59
2023/02/06 03:48:34;;;;;;;25.35;7.03;;;;;;;2.01;100.00;101598.97;5045867;28;20170;-59
2023/02/06 03:51:02;;;;;;;23.05;7.13;;;;;;;1.83;100.00;101598.69;5029052;28;20029;-59
2023/02/06 03:53:28;;;;;;;24.75;7.15;;;;;;;1.88;100.00;101603.59;5043902;28;20078;-59
2023/02/06 03:55:54;;;;;;;18.70;6.03;;;;;;;1.69;100.00;101620.13;5039179;28;20037;-59
2023/02/06 03:58:20;;;;;;;16.33;6.55;;;;;;;1.67;100.00;101611.50;5027575;28;20056;-59
2023/02/06 04:00:45;;;;;;;26.63;7.05;;;;;;;1.54;100.00;101621.41;5045125;28;20040;-59
2023/02/06 04:03:10;;;;;;;24.08;6.68;;;;;;;1.51;100.00;101623.31;5034451;28;20036;-59
2023/02/06 04:05:36;;;;;;;24.50;7.03;;;;;;;1.50;100.00;101624.31;5018439;28;20071;-59
2023/02/06 04:08:02;;;;;;;24.90;7.22;;;;;;;1.44;100.00;101639.81;5036070;28;20468;-58
2023/02/06 04:10:28;;;;;;;31.13;7.60;;;;;;;1.27;100.00;101639.38;5052253;28;20060;-59
2023/02/06 04:12:53;;;;;;;32.63;7.15;;;;;;;1.24;100.00;101649.34;5037946;28;20028;-59
2023/02/06 04:15:19;;;;;;;44.47;7.72;;;;;;;1.18;100.00;101637.47;5051709;28;20035;-59
2023/02/06 04:17:44;;;;;;;37.78;8.43;;;;;;;1.03;100.00;101634.22;5039953;28;20532;-59
2023/02/06 04:20:10;;;;;;;36.35;8.85;;;;;;;0.98;100.00;101631.13;5043343;28;20025;-59
2023/02/06 04:22:35;;;;;;;38.85;8.25;;;;;;;0.95;100.00;101639.28;5054095;28;20035;-59
2023/02/06 04:25:01;;;;;;;36.45;8.95;;;;;;;0.88;100.00;101635.44;5042485;28;20029;-59
2023/02/06 04:27:26;;;;;;;37.75;8.50;;;;;;;0.86;100.00;101637.38;5048705;28;20055;-59
2023/02/06 04:29:51;;;;;;;46.88;9.38;;;;;;;0.89;100.00;101633.66;5043870;28;20025;-59
2023/02/06 04:32:17;;;;;;;36.15;9.93;;;;;;;0.81;100.00;101634.25;5042881;28;20036;-59
2023/02/06 04:34:42;;;;;;;36.15;10.60;;;;;;;0.75;100.00;101645.28;5041819;28;20040;-59
2023/02/06 04:37:08;;;;;;;44.55;10.15;;;;;;;0.70;100.00;101647.44;5041433;28;20107;-59
2023/02/06 04:39:33;;;;;;;49.00;10.55;;;;;;;0.66;100.00;101640.72;5041488;28;20124;-59
2023/02/06 04:41:59;;;;;;;38.50;11.65;;;;;;;0.54;100.00;101643.34;5044460;28;20033;-59
2023/02/06 04:44:24;;;;;;;51.17;11.63;;;;;;;0.63;100.00;101636.53;5041338;28;20360;-59
2023/02/06 04:46:50;;;;;;;45.00;10.65;;;;;;;0.62;100.00;101640.97;5035046;28;20517;-59
2023/02/06 04:49:15;;;;;;;36.25;11.00;;;;;;;0.55;100.00;101645.03;5043542;28;20040;-59
2023/02/06 04:51:41;;;;;;;38.85;10.60;;;;;;;0.33;100.00;101655.56;5041809;28;20090;-59
2023/02/06 04:54:06;;;;;;;43.92;11.63;;;;;;;0.37;100.00;101652.53;5040391;28;20037;-59
2023/02/06 04:56:31;;;;;;;57.75;13.88;;;;;;;0.45;100.00;101644.06;5036838;28;20036;-59
2023/02/06 04:58:57;;;;;;;42.60;12.13;;;;;;;0.37;100.00;101643.78;5043570;28;20391;-59
2023/02/06 05:01:22;;;;;;;38.20;12.20;;;;;;;0.29;100.00;101647.00;5038610;28;20036;-59
2023/02/06 05:03:48;;;;;;;52.63;12.30;;;;;;;0.15;100.00;101648.06;5037749;28;20112;-59
2023/02/06 05:06:13;;;;;;;39.08;11.27;;;;;;;0.18;100.00;101658.38;5044258;28;20391;-62
2023/02/06 05:08:39;;;;;;;44.00;12.05;;;;;;;0.15;100.00;101658.63;5036316;28;20117;-59
2023/02/06 05:11:04;;;;;;;48.45;12.32;;;;;;;0.25;100.00;101647.34;5036774;28;20041;-59
2023/02/06 05:13:30;;;;;;;60.78;13.00;;;;;;;0.13;100.00;101649.16;5020951;28;20040;-59
2023/02/06 05:16:00;;;;;;;51.53;12.55;;;;;;;0.06;100.00;101654.03;5043439;28;20036;-59
2023/02/06 05:18:25;;;;;;;50.72;12.57;;;;;;;-0.09;100.00;101644.63;5031539;28;20115;-59
2023/02/06 05:20:51;;;;;;;58.83;13.48;;;;;;;0.01;100.00;101652.69;5045233;28;20021;-61
2023/02/06 05:23:17;;;;;;;47.83;13.88;;;;;;;-0.07;100.00;101650.63;5044008;28;20025;-60
2023/02/06 05:25:42;;;;;;;47.80;11.77;;;;;;;-0.03;100.00;101659.97;5038591;28;20029;-59
2023/02/06 05:28:07;;;;;;;43.00;14.32;;;;;;;-0.05;100.00;101656.59;5036079;28;20490;-59
2023/02/06 05:30:33;;;;;;;54.53;13.63;;;;;;;-0.12;100.00;101656.25;5041467;28;20021;-59
2023/02/06 05:32:58;;;;;;;44.53;12.73;;;;;;;-0.23;100.00;101657.00;5047525;28;20108;-59
2023/02/06 05:35:24;;;;;;;55.55;14.82;;;;;;;-0.17;100.00;101658.38;5047454;28;20027;-59
2023/02/06 05:37:49;;;;;;;49.97;13.30;;;;;;;-0.19;100.00;101651.53;5040218;28;20029;-59
2023/02/06 05:40:15;;;;;;;35.83;12.20;;;;;;;-0.31;100.00;101643.56;5037016;28;20400;-59
2023/02/06 05:42:41;;;;;;;54.65;14.13;;;;;;;-0.25;100.00;101637.88;5039276;28;20056;-59
2023/02/06 05:45:07;;;;;;;51.53;13.23;;;;;;;-0.14;100.00;101636.22;5046533;28;20129;-59
2023/02/06 05:47:32;;;;;;;58.70;13.27;;;;;;;-0.28;100.00;101635.44;5039172;28;20083;-59
2023/02/06 05:49:57;;;;;;;48.00;13.65;;;;;;;-0.27;100.00;101637.13;5037894;28;20449;-59
2023/02/06 05:52:23;;;;;;;41.40;13.70;;;;;;;-0.40;100.00;101625.81;5033995;28;20400;-60
2023/02/06 05:54:48;;;;;;;46.75;11.82;;;;;;;-0.41;100.00;101626.75;5035650;28;20036;-61
2023/02/06 05:57:14;;;;;;;54.28;13.32;;;;;;;-0.46;100.00;101627.09;5039716;28;20024;-58
2023/02/06 05:59:39;;;;;;;47.10;12.88;;;;;;;-0.40;100.00;101630.22;5038170;28;20029;-58
2023/02/06 06:02:05;;;;;;;52.80;13.85;;;;;;;-0.51;100.00;101629.22;5049479;28;20022;-61
2023/02/06 06:04:30;;;;;;;42.40;12.52;;;;;;;-0.54;100.00;101628.63;5042291;28;20025;-61
2023/02/06 06:06:56;;;;;;;50.45;13.20;;;;;;;-0.47;100.00;101638.59;5044967;28;20036;-59
2023/02/06 06:09:21;;;;;;;50.17;13.82;;;;;;;-0.59;100.00;101636.00;5054367;28;20051;-59
2023/02/06 06:11:46;;;;;;;42.35;12.80;;;;;;;-0.57;100.00;101640.22;5043252;28;20033;-59
2023/02/06 06:14:12;;;;;;;50.35;14.30;;;;;;;-0.58;100.00;101637.69;5038910;28;20030;-59
2023/02/06 06:16:39;;;;;;;48.70;14.02;;;;;;;-0.68;100.00;101626.97;5040285;28;20029;-59
2023/02/06 06:19:04;;;;;;;51.33;15.02;;;;;;;-0.71;100.00;101632.47;5042847;28;20025;-60
2023/02/06 06:21:30;;;;;;;39.28;13.38;;;;;;;-0.73;100.00;101623.81;5040181;28;20024;-59
2023/02/06 06:23:55;;;;;;;51.03;15.63;;;;;;;-0.84;100.00;101626.41;5035072;28;20240;-59
2023/02/06 06:26:21;;;;;;;49.05;15.77;;;;;;;-0.90;100.00;101625.88;5036399;28;20345;-59
2023/02/06 06:28:46;;;;;;;58.90;15.48;;;;;;;-0.88;100.00;101628.41;5043666;28;20026;-61
2023/02/06 06:31:12;;;;;;;45.78;15.20;;;;;;;-0.82;100.00;101625.34;5042002;28;20041;-60
2023/02/06 06:33:38;;;;;;;55.72;15.90;;;;;;;-0.81;100.00;101634.91;5035117;28;20025;-58
2023/02/06 06:36:05;;;;;;;69.10;17.30;;;;;;;-0.88;100.00;101637.13;5041576;28;20530;-60
2023/02/06 06:38:30;;;;;;;56.47;15.77;;;;;;;-0.95;100.00;101637.69;5036026;28;20072;-61
2023/02/06 06:40:55;;;;;;;60.85;17.05;;;;;;;-0.90;100.00;101638.19;5041838;28;20041;-60
2023/02/06 06:43:21;;;;;;;49.90;15.98;;;;;;;-0.88;100.00;101639.75;5043210;28;20490;-59
2023/02/06 06:45:46;;;;;;;56.80;17.08;;;;;;;-0.95;100.00;101638.53;5047419;28;20056;-59
2023/02/06 06:48:12;;;;;;;40.22;15.38;;;;;;;-0.94;100.00;101637.59;5047021;28;20360;-58
2023/02/06 06:50:37;;;;;;;59.20;17.10;;;;;;;-1.00;100.00;101631.91;5044516;28;20028;-60
2023/02/06 06:53:03;;;;;;;53.70;18.15;;;;;;;-0.97;100.00;101636.97;5037727;28;20580;-59
2023/02/06 06:55:28;;;;;;;51.28;17.20;;;;;;;-0.99;100.00;101634.44;5041358;28;20029;-60
2023/02/06 06:57:54;;;;;;;64.80;19.58;;;;;;;-1.02;100.00;101629.41;5039198;28;20742;-60
2023/02/06 07:00:19;;;;;;;64.43;22.25;;;;;;;-1.01;100.00;101624.97;5040885;28;20032;-60
2023/02/06 07:02:45;;;;;;;63.47;22.33;;;;;;;-1.03;100.00;101626.84;5036601;28;20143;-60
2023/02/06 07:05:10;;;;;;;54.20;17.75;;;;;;;-0.98;100.00;101643.16;5042658;28;20055;-60
2023/02/06 07:07:37;;;;;;;71.72;20.55;;;;;;;-0.97;100.00;101643.06;5023707;28;20091;-60
2023/02/06 07:10:03;;;;;;;63.50;19.60;;;;;;;-0.89;100.00;101634.63;5037621;28;20436;-60
2023/02/06 07:12:28;;;;;;;76.82;22.17;;;;;;;-0.95;100.00;101633.28;5042790;28;20060;-60
2023/02/06 07:14:54;;;;;;;60.03;20.33;;;;;;;-0.95;100.00;101637.69;5040743;28;20031;-60
2023/02/06 07:17:19;;;;;;;61.50;19.70;;;;;;;-0.92;100.00;101632.22;5043853;28;20098;-60
2023/02/06 07:19:46;;;;;;;72.50;18.98;;;;;;;-1.01;100.00;101627.59;5037909;28;20029;-61
2023/02/06 07:22:13;;;;;;;56.30;20.13;;;;;;;-1.03;100.00;101634.75;5035224;28;20032;-59
2023/02/06 07:24:39;;;;;;;70.38;19.80;;;;;;;-1.03;100.00;101647.91;5032771;28;20100;-59
2023/02/06 07:27:07;;;;;;;70.15;19.55;;;;;;;-1.03;100.00;101646.13;5035732;28;20029;-60
2023/02/06 07:29:32;;;;;;;72.65;21.20;;;;;;;-1.00;100.00;101652.97;5042923;28;20025;-59
2023/02/06 07:31:58;;;;;;;63.35;18.95;;;;;;;-0.84;100.00;101650.94;5041426;28;20032;-59
2023/02/06 07:34:23;;;;;;;59.28;19.35;;;;;;;-0.88;100.00;101660.81;5037540;28;20516;-60
2023/02/06 07:36:49;;;;;;;77.97;20.52;;;;;;;-0.73;100.00;101655.44;5035638;28;20491;-60
2023/02/06 07:39:14;;;;;;;85.90;22.80;;;;;;;-0.72;100.00;101663.22;5040485;28;20032;-59
2023/02/06 07:41:40;;;;;;;66.20;21.58;;;;;;;-0.60;100.00;101661.53;5036782;28;20490;-59
2023/02/06 07:44:06;;;;;;;76.82;20.33;;;;;;;-0.52;100.00;101664.44;5043421;28;20079;-61
2023/02/06 07:46:32;;;;;;;68.75;21.40;;;;;;;-0.65;100.00;101660.97;5038141;28;20076;-59
2023/02/06 07:48:58;;;;;;;80.88;20.73;;;;;;;-0.69;100.00;101667.44;5036265;28;20033;-59
2023/02/06 07:51:23;;;;;;;94.93;27.15;;;;;;;-0.66;100.00;101673.31;5035245;28;20063;-59
2023/02/06 07:53:49;;;;;;;87.65;25.98;;;;;;;-0.62;100.00;101665.19;5033622;28;20431;-59
2023/02/06 07:56:15;;;;;;;109.82;27.05;;;;;;;-0.60;100.00;101672.06;5044919;28;20424;-59
2023/02/06 07:58:41;;;;;;;103.40;27.15;;;;;;;-0.53;100.00;101672.44;5037059;28;20047;-59
2023/02/06 08:01:06;;;;;;;112.43;26.95;;;;;;;-0.46;100.00;101663.13;5039220;28;20486;-59
2023/02/06 08:03:32;;;;;;;115.68;29.23;;;;;;;-0.43;100.00;101665.53;5039625;28;20036;-59
2023/02/06 08:05:57;;;;;;;86.95;24.95;;;;;;;-0.31;100.00;101664.66;5034282;28;20052;-60
2023/02/06 08:08:23;;;;;;;128.50;30.50;;;;;;;-0.34;100.00;101677.22;5045867;28;20124;-59
2023/02/06 08:10:48;;;;;;;131.70;28.63;;;;;;;-0.41;100.00;101671.56;5032904;28;20040;-59
2023/02/06 08:13:14;;;;;;;102.72;26.73;;;;;;;-0.18;100.00;101671.66;5034226;28;20029;-58
2023/02/06 08:15:39;;;;;;;126.82;24.88;;;;;;;-0.34;100.00;101672.78;5032305;28;20372;-59
2023/02/06 08:18:05;;;;;;;111.07;27.92;;;;;;;-0.24;100.00;101679.06;5039504;28;20029;-59
2023/02/06 08:20:30;;;;;;;104.93;25.55;;;;;;;-0.14;100.00;101670.50;5062519;28;20055;-59
2023/02/06 08:22:56;;;;;;;132.43;29.27;;;;;;;-0.08;100.00;101668.22;5035376;28;20052;-59
2023/02/06 08:25:21;;;;;;;147.45;32.42;;;;;;;-0.05;100.00;101669.78;5037509;28;20032;-59
2023/02/06 08:27:47;;;;;;;118.70;27.05;;;;;;;0.07;100.00;101660.97;5047142;28;20539;-59
2023/02/06 08:30:12;;;;;;;112.55;28.80;;;;;;;-0.10;100.00;101674.56;5039326;28;20022;-59
2023/02/06 08:32:38;;;;;;;189.70;50.78;;;;;;;0.19;100.00;101673.25;5033089;28;20029;-59
2023/02/06 08:35:04;;;;;;;114.30;26.65;;;;;;;0.19;100.00;101667.97;5036954;28;20028;-60
2023/02/06 08:37:30;;;;;;;111.72;25.60;;;;;;;0.30;100.00;101663.69;5041203;28;20151;-60
2023/02/06 08:39:56;;;;;;;108.75;24.58;;;;;;;0.11;100.00;101670.34;5038444;28;20030;-60
2023/02/06 08:42:21;;;;;;;126.13;28.83;;;;;;;0.38;100.00;101679.78;5044330;28;20097;-61
2023/02/06 08:44:47;;;;;;;102.75;26.88;;;;;;;0.39;100.00;101676.19;5033290;28;20030;-60
2023/02/06 08:47:12;;;;;;;102.18;26.52;;;;;;;0.52;100.00;101671.63;5034467;28;20039;-62
2023/02/06 08:49:38;;;;;;;96.75;25.83;;;;;;;0.38;100.00;101670.06;5037724;28;20033;-60
2023/02/06 08:52:04;;;;;;;113.60;25.75;;;;;;;0.38;100.00;101664.78;5021259;28;20479;-61
2023/02/06 08:54:30;;;;;;;89.60;21.67;;;;;;;0.40;100.00;101672.56;5042556;28;20029;-60
2023/02/06 08:56:55;;;;;;;96.30;24.40;;;;;;;0.38;100.00;101669.25;5034643;28;20018;-59
2023/02/06 08:59:21;;;;;;;109.78;25.80;;;;;;;0.47;100.00;101668.50;5041635;28;20025;-59
2023/02/06 09:01:48;;;;;;;86.95;22.50;;;;;;;0.51;100.00;101664.69;5035011;28;20076;-59
2023/02/06 09:04:13;;;;;;;87.43;23.73;;;;;;;0.60;100.00;101674.56;5040274;28;20028;-59
2023/02/06 09:06:44;;;;;;;106.93;27.23;;;;;;;0.82;100.00;101675.53;5038309;28;20392;-59
2023/02/06 09:09:10;;;;;;;98.72;26.30;;;;;;;1.07;100.00;101674.44;5028054;28;20132;-59
2023/02/06 09:11:36;;;;;;;113.47;27.02;;;;;;;1.34;100.00;101668.78;5036325;28;20068;-60
2023/02/06 09:14:02;;;;;;;98.45;23.50;;;;;;;1.09;100.00;101664.59;5039988;28;20068;-59
2023/02/06 09:16:28;;;;;;;105.13;26.52;;;;;;;1.03;100.00;101676.50;5034773;28;20037;-59
2023/02/06 09:19:00;;;;;;;88.03;24.10;;;;;;;1.13;100.00;101681.91;5038978;28;20053;-59
2023/02/06 09:21:26;;;;;;;78.57;23.63;;;;;;;0.98;100.00;101676.00;5041557;28;20116;-59
2023/02/06 09:23:57;;;;;;;78.10;23.83;;;;;;;0.96;100.00;101679.75;5034790;28;20064;-60
2023/02/06 09:26:24;;;;;;;69.05;22.17;;;;;;;1.00;100.00;101683.78;5038838;28;20032;-59
2023/02/06 09:28:57;;;;;;;72.10;24.38;;;;;;;1.28;100.00;101679.84;5033841;28;20107;-59
2023/02/06 09:31:29;;;;;;;73.47;21.45;;;;;;;1.31;100.00;101674.31;5071852;28;20132;-60
2023/02/06 09:34:01;;;;;;;86.80;23.25;;;;;;;1.38;100.00;101678.13;5037305;28;20092;-60
2023/02/06 09:36:27;;;;;;;68.10;21.13;;;;;;;1.80;100.00;101675.66;5023401;28;20029;-59
2023/02/06 09:38:56;;;;;;;79.22;21.45;;;;;;;2.02;100.00;101679.16;5041750;28;20128;-61
2023/02/06 09:41:42;;;;;;;77.45;20.35;;;;;;;2.49;100.00;101672.53;5045279;28;20024;-59
2023/02/06 09:44:28;;;;;;;71.53;24.15;;;;;;;2.92;97.80;101674.16;5039431;28;20037;-59
2023/02/06 09:46:55;;;;;;;62.47;20.40;;;;;;;2.16;99.93;101655.88;5044888;28;20297;-59
2023/02/06 09:49:38;;;;;;;55.58;19.40;;;;;;;2.38;100.00;101660.19;5044488;28;20128;-59
2023/02/06 09:52:17;;;;;;;65.65;18.27;;;;;;;2.18;100.00;101662.84;5045418;28;20033;-60
2023/02/06 09:54:54;;;;;;;62.53;18.20;;;;;;;2.43;100.00;101662.47;5041587;28;20021;-61
2023/02/06 09:57:35;;;;;;;69.65;18.42;;;;;;;2.64;99.13;101653.66;5047810;28;20036;-60
2023/02/06 10:00:01;;;;;;;;;;;;;;;2.67;98.44;101651.59;5034950;28;20140;-60
2023/02/06 10:03:02;;;;;;;45.60;13.73;;;;;;;3.11;93.70;101652.19;5038348;28;19922;-60
2023/02/06 10:05:46;;;;;;;59.25;14.45;;;;;;;3.13;94.19;101655.53;5049615;28;20483;-63
2023/02/06 10:08:28;;;;;;;50.08;15.43;;;;;;;3.03;94.05;101649.38;5043471;28;20534;-61
2023/02/06 10:11:01;;;;;;;51.28;16.98;;;;;;;3.15;93.88;101642.19;5040518;28;20577;-60
2023/02/06 10:13:32;;;;;;;41.10;14.10;;;;;;;2.73;94.11;101648.41;5015367;28;20029;-60
2023/02/06 10:16:04;;;;;;;51.97;16.02;;;;;;;4.76;89.47;101640.72;5025524;28;20083;-59
2023/02/06 10:18:37;;;;;;;44.35;13.18;;;;;;;3.71;87.66;101641.56;5043134;28;20036;-58
2023/02/06 10:21:28;;;;;;;45.60;13.93;;;;;;;3.56;88.27;101630.53;5039162;28;20036;-60
2023/02/06 10:24:22;;;;;;;41.15;13.60;;;;;;;3.39;88.00;101636.50;5037362;28;20037;-60
2023/02/06 10:26:48;;;;;;;49.75;14.50;;;;;;;2.88;90.04;101629.53;5028799;28;20126;-58
2023/02/06 10:29:19;;;;;;;51.72;17.77;;;;;;;3.13;91.06;101629.03;5046451;28;20096;-58
2023/02/06 10:32:01;;;;;;;60.67;14.27;;;;;;;2.80;89.14;101617.78;5025245;28;20216;-59
2023/02/06 10:34:50;;;;;;;49.05;13.38;;;;;;;3.33;89.31;101623.81;5041256;28;20032;-58
2023/02/06 10:37:51;;;;;;;50.35;16.95;;;;;;;3.37;89.79;101617.22;5043232;28;20021;-59
2023/02/06 10:40:19;;;;;;;;;;;;;;;2.98;88.31;101609.19;5035444;28;20039;-58
2023/02/06 10:43:12;;;;;;;32.45;12.65;;;;;;;2.68;87.65;101612.72;5042920;28;20604;-58
2023/02/06 10:46:01;;;;;;;34.03;10.95;;;;;;;2.37;87.87;101604.75;5033794;28;20048;-58
2023/02/06 10:48:43;;;;;;;36.92;11.10;;;;;;;2.58;90.45;101610.03;5040519;28;20028;-59
2023/02/06 10:51:21;;;;;;;34.65;11.43;;;;;;;2.78;90.61;101610.94;5026246;28;20047;-59
2023/02/06 10:53:48;;;;;;;39.92;11.70;;;;;;;3.47;88.01;101604.84;5052361;28;20039;-59
2023/02/06 10:56:16;;;;;;;57.33;13.18;;;;;;;3.39;87.07;101597.56;5044271;28;20029;-58
2023/02/06 10:58:52;;;;;;;39.90;10.30;;;;;;;3.38;88.74;101597.72;5043916;28;20036;-58
2023/02/06 11:01:17;;;;;;;50.17;13.45;;;;;;;3.39;87.41;101581.66;5010152;28;20037;-59
2023/02/06 11:04:03;;;;;;;48.63;13.93;;;;;;;3.12;88.47;101574.38;5023542;28;20024;-59
2023/02/06 11:06:29;;;;;;;41.13;12.20;;;;;;;3.07;90.89;101571.31;5041833;28;20483;-59
2023/02/06 11:08:54;;;;;;;40.17;10.95;;;;;;;2.72;89.52;101562.00;5043041;28;20099;-59
2023/02/06 11:11:21;;;;;;;33.47;11.95;;;;;;;2.78;91.37;101561.44;5042534;28;20036;-59
2023/02/06 11:13:49;;;;;;;35.80;11.68;;;;;;;2.70;91.84;101558.66;5045551;28;20029;-59
2023/02/06 11:16:15;;;;;;;42.80;12.60;;;;;;;3.05;91.33;101562.66;5042321;28;20022;-61
2023/02/06 11:18:44;;;;;;;36.92;11.50;;;;;;;3.55;89.39;101551.97;5036441;28;20049;-61